Wetterdaten für den Flughafen Lübeck Blankensee


ADDS - METARS form results Aviation Digital Data Service (ADDS) Output produced by METARs form (0030 UTC 22 August 2019)
found at http://www.aviationweather.gov/metar/data/
 
EDHL 211850Z 00000KT CAVOK 16/11 Q1028
TAF EDHL 211700Z 2118/2121 VRB02KT CAVOK

Nord: Hamburg, Lübeck
Ost: Schwerin, Rostock
Süd: Hannover
West: Bremen, Nordhloz

 

Copyright © 2016 Flugschule Hohensee